sensor_id;sensor_type;location;lat;lon;timestamp;P1;durP1;ratioP1;P2;durP2;ratioP2
43883;SDS011;29544;52.018;5.810;2023-04-03T00:00:13;2.43;;;1.03;;
43883;SDS011;29544;52.018;5.810;2023-04-03T00:02:38;0.70;;;0.50;;
43883;SDS011;29544;52.018;5.810;2023-04-03T00:07:31;1.35;;;0.60;;
43883;SDS011;29544;52.018;5.810;2023-04-03T00:09:56;2.30;;;0.60;;
43883;SDS011;29544;52.018;5.810;2023-04-03T00:12:22;1.83;;;0.70;;
43883;SDS011;29544;52.018;5.810;2023-04-03T00:14:47;1.30;;;0.67;;
43883;SDS011;29544;52.018;5.810;2023-04-03T00:17:13;1.23;;;0.60;;
43883;SDS011;29544;52.018;5.810;2023-04-03T00:19:38;1.33;;;0.90;;
43883;SDS011;29544;52.018;5.810;2023-04-03T00:22:04;1.80;;;0.83;;
43883;SDS011;29544;52.018;5.810;2023-04-03T00:24:29;1.00;;;0.63;;
43883;SDS011;29544;52.018;5.810;2023-04-03T00:26:55;1.03;;;0.70;;
43883;SDS011;29544;52.018;5.810;2023-04-03T00:29:20;2.43;;;0.80;;
43883;SDS011;29544;52.018;5.810;2023-04-03T00:31:46;1.67;;;0.90;;
43883;SDS011;29544;52.018;5.810;2023-04-03T00:34:11;0.90;;;0.60;;
43883;SDS011;29544;52.018;5.810;2023-04-03T00:36:37;3.20;;;0.80;;
43883;SDS011;29544;52.018;5.810;2023-04-03T00:39:02;0.93;;;0.63;;
43883;SDS011;29544;52.018;5.810;2023-04-03T00:41:28;1.53;;;0.70;;
43883;SDS011;29544;52.018;5.810;2023-04-03T00:43:53;0.73;;;0.50;;
43883;SDS011;29544;52.018;5.810;2023-04-03T00:46:19;1.30;;;0.77;;
43883;SDS011;29544;52.018;5.810;2023-04-03T00:48:45;2.23;;;0.70;;
43883;SDS011;29544;52.018;5.810;2023-04-03T00:51:14;1.02;;;0.73;;
43883;SDS011;29544;52.018;5.810;2023-04-03T00:53:48;2.80;;;0.88;;
43883;SDS011;29544;52.018;5.810;2023-04-03T00:56:17;0.85;;;0.60;;
43883;SDS011;29544;52.018;5.810;2023-04-03T00:58:48;0.85;;;0.60;;
43883;SDS011;29544;52.018;5.810;2023-04-03T01:01:26;1.23;;;0.77;;
43883;SDS011;29544;52.018;5.810;2023-04-03T01:03:53;0.73;;;0.60;;
43883;SDS011;29544;52.018;5.810;2023-04-03T01:06:24;0.95;;;0.70;;
43883;SDS011;29544;52.018;5.810;2023-04-03T01:08:53;1.45;;;0.73;;
43883;SDS011;29544;52.018;5.810;2023-04-03T01:11:20;1.10;;;0.70;;
43883;SDS011;29544;52.018;5.810;2023-04-03T01:13:46;1.07;;;0.70;;
43883;SDS011;29544;52.018;5.810;2023-04-03T01:16:12;1.42;;;0.82;;
43883;SDS011;29544;52.018;5.810;2023-04-03T01:18:38;1.00;;;0.60;;
43883;SDS011;29544;52.018;5.810;2023-04-03T01:26:00;1.27;;;0.70;;
43883;SDS011;29544;52.018;5.810;2023-04-03T01:28:27;1.50;;;0.77;;
43883;SDS011;29544;52.018;5.810;2023-04-03T01:33:38;1.15;;;0.65;;
43883;SDS011;29544;52.018;5.810;2023-04-03T01:36:04;0.50;;;0.50;;
43883;SDS011;29544;52.018;5.810;2023-04-03T01:38:30;0.95;;;0.60;;
43883;SDS011;29544;52.018;5.810;2023-04-03T01:40:56;1.63;;;0.60;;
43883;SDS011;29544;52.018;5.810;2023-04-03T01:43:22;1.43;;;0.70;;
43883;SDS011;29544;52.018;5.810;2023-04-03T01:45:47;1.03;;;0.60;;
43883;SDS011;29544;52.018;5.810;2023-04-03T01:48:14;0.88;;;0.70;;
43883;SDS011;29544;52.018;5.810;2023-04-03T01:50:40;1.50;;;0.60;;
43883;SDS011;29544;52.018;5.810;2023-04-03T01:53:06;2.22;;;0.80;;
43883;SDS011;29544;52.018;5.810;2023-04-03T01:55:32;2.63;;;0.80;;
43883;SDS011;29544;52.018;5.810;2023-04-03T01:57:57;1.23;;;0.70;;
43883;SDS011;29544;52.018;5.810;2023-04-03T02:00:23;0.90;;;0.63;;
43883;SDS011;29544;52.018;5.810;2023-04-03T02:02:48;2.07;;;0.77;;
43883;SDS011;29544;52.018;5.810;2023-04-03T02:05:14;1.08;;;0.60;;
43883;SDS011;29544;52.018;5.810;2023-04-03T02:07:40;1.83;;;0.70;;
43883;SDS011;29544;52.018;5.810;2023-04-03T02:10:06;1.40;;;0.87;;
43883;SDS011;29544;52.018;5.810;2023-04-03T02:12:31;0.60;;;0.53;;
43883;SDS011;29544;52.018;5.810;2023-04-03T02:14:57;1.80;;;0.70;;
43883;SDS011;29544;52.018;5.810;2023-04-03T02:17:23;1.23;;;0.80;;
43883;SDS011;29544;52.018;5.810;2023-04-03T02:19:48;1.63;;;0.80;;
43883;SDS011;29544;52.018;5.810;2023-04-03T02:22:14;1.53;;;0.77;;
43883;SDS011;29544;52.018;5.810;2023-04-03T02:24:40;0.95;;;0.70;;
43883;SDS011;29544;52.018;5.810;2023-04-03T02:27:06;2.97;;;1.17;;
43883;SDS011;29544;52.018;5.810;2023-04-03T02:29:32;1.35;;;0.85;;
43883;SDS011;29544;52.018;5.810;2023-04-03T02:31:57;0.70;;;0.70;;
43883;SDS011;29544;52.018;5.810;2023-04-03T02:34:23;2.07;;;0.80;;
43883;SDS011;29544;52.018;5.810;2023-04-03T02:36:48;1.40;;;0.70;;
43883;SDS011;29544;52.018;5.810;2023-04-03T02:39:14;1.57;;;0.60;;
43883;SDS011;29544;52.018;5.810;2023-04-03T02:41:40;1.33;;;0.80;;
43883;SDS011;29544;52.018;5.810;2023-04-03T02:44:06;1.27;;;0.70;;
43883;SDS011;29544;52.018;5.810;2023-04-03T02:46:34;1.42;;;0.80;;
43883;SDS011;29544;52.018;5.810;2023-04-03T02:48:59;1.53;;;0.80;;
43883;SDS011;29544;52.018;5.810;2023-04-03T02:51:25;2.60;;;0.87;;
43883;SDS011;29544;52.018;5.810;2023-04-03T02:53:50;0.97;;;0.60;;
43883;SDS011;29544;52.018;5.810;2023-04-03T02:56:16;1.23;;;0.80;;
43883;SDS011;29544;52.018;5.810;2023-04-03T02:58:43;1.45;;;0.77;;
43883;SDS011;29544;52.018;5.810;2023-04-03T03:01:09;1.27;;;0.70;;
43883;SDS011;29544;52.018;5.810;2023-04-03T03:03:34;1.23;;;0.77;;
43883;SDS011;29544;52.018;5.810;2023-04-03T03:06:07;1.53;;;0.67;;
43883;SDS011;29544;52.018;5.810;2023-04-03T03:08:37;1.83;;;0.75;;
43883;SDS011;29544;52.018;5.810;2023-04-03T03:11:03;1.90;;;0.83;;
43883;SDS011;29544;52.018;5.810;2023-04-03T03:13:30;1.88;;;0.85;;
43883;SDS011;29544;52.018;5.810;2023-04-03T03:15:56;1.42;;;0.70;;
43883;SDS011;29544;52.018;5.810;2023-04-03T03:18:22;1.17;;;0.80;;
43883;SDS011;29544;52.018;5.810;2023-04-03T03:20:54;3.43;;;1.07;;
43883;SDS011;29544;52.018;5.810;2023-04-03T03:23:21;1.75;;;0.80;;
43883;SDS011;29544;52.018;5.810;2023-04-03T03:25:49;0.70;;;0.60;;
43883;SDS011;29544;52.018;5.810;2023-04-03T03:28:19;1.40;;;0.68;;
43883;SDS011;29544;52.018;5.810;2023-04-03T03:30:44;1.47;;;0.70;;
43883;SDS011;29544;52.018;5.810;2023-04-03T03:33:10;3.30;;;0.90;;
43883;SDS011;29544;52.018;5.810;2023-04-03T03:35:35;2.27;;;0.83;;
43883;SDS011;29544;52.018;5.810;2023-04-03T03:38:01;1.17;;;0.70;;
43883;SDS011;29544;52.018;5.810;2023-04-03T03:40:27;1.87;;;0.80;;
43883;SDS011;29544;52.018;5.810;2023-04-03T03:42:52;1.10;;;0.70;;
43883;SDS011;29544;52.018;5.810;2023-04-03T03:45:18;0.93;;;0.70;;
43883;SDS011;29544;52.018;5.810;2023-04-03T03:47:43;1.33;;;0.70;;
43883;SDS011;29544;52.018;5.810;2023-04-03T03:52:35;1.35;;;0.63;;
43883;SDS011;29544;52.018;5.810;2023-04-03T03:55:01;1.63;;;0.80;;
43883;SDS011;29544;52.018;5.810;2023-04-03T03:57:27;1.20;;;1.00;;
43883;SDS011;29544;52.018;5.810;2023-04-03T03:59:53;1.55;;;0.80;;
43883;SDS011;29544;52.018;5.810;2023-04-03T04:02:19;1.90;;;0.70;;
43883;SDS011;29544;52.018;5.810;2023-04-03T04:04:45;1.10;;;0.80;;
43883;SDS011;29544;52.018;5.810;2023-04-03T04:07:11;1.37;;;0.67;;
43883;SDS011;29544;52.018;5.810;2023-04-03T04:09:36;1.85;;;0.98;;
43883;SDS011;29544;52.018;5.810;2023-04-03T04:12:02;2.77;;;1.00;;
43883;SDS011;29544;52.018;5.810;2023-04-03T04:14:27;1.00;;;0.60;;
43883;SDS011;29544;52.018;5.810;2023-04-03T04:16:53;2.33;;;0.90;;
43883;SDS011;29544;52.018;5.810;2023-04-03T04:19:19;1.57;;;0.77;;
43883;SDS011;29544;52.018;5.810;2023-04-03T04:21:44;1.47;;;0.90;;
43883;SDS011;29544;52.018;5.810;2023-04-03T04:24:10;4.25;;;1.05;;
43883;SDS011;29544;52.018;5.810;2023-04-03T04:26:36;1.17;;;0.80;;
43883;SDS011;29544;52.018;5.810;2023-04-03T04:29:01;2.43;;;0.93;;
43883;SDS011;29544;52.018;5.810;2023-04-03T04:31:27;2.90;;;0.90;;
43883;SDS011;29544;52.018;5.810;2023-04-03T04:33:53;1.33;;;0.90;;
43883;SDS011;29544;52.018;5.810;2023-04-03T04:36:18;2.30;;;0.93;;
43883;SDS011;29544;52.018;5.810;2023-04-03T04:38:44;1.35;;;0.80;;
43883;SDS011;29544;52.018;5.810;2023-04-03T04:41:10;1.30;;;0.83;;
43883;SDS011;29544;52.018;5.810;2023-04-03T04:43:35;3.53;;;1.07;;
43883;SDS011;29544;52.018;5.810;2023-04-03T04:46:02;3.30;;;0.83;;
43883;SDS011;29544;52.018;5.810;2023-04-03T04:48:29;2.03;;;0.90;;
43883;SDS011;29544;52.018;5.810;2023-04-03T04:50:55;2.93;;;0.90;;
43883;SDS011;29544;52.018;5.810;2023-04-03T04:53:20;3.93;;;0.90;;
43883;SDS011;29544;52.018;5.810;2023-04-03T04:55:46;2.97;;;1.03;;
43883;SDS011;29544;52.018;5.810;2023-04-03T04:58:11;2.87;;;1.03;;
43883;SDS011;29544;52.018;5.810;2023-04-03T05:00:37;3.07;;;0.60;;
43883;SDS011;29544;52.018;5.810;2023-04-03T05:03:02;1.73;;;0.80;;
43883;SDS011;29544;52.018;5.810;2023-04-03T05:05:28;1.23;;;0.90;;
43883;SDS011;29544;52.018;5.810;2023-04-03T05:07:53;2.20;;;1.10;;
43883;SDS011;29544;52.018;5.810;2023-04-03T05:10:19;2.60;;;0.93;;
43883;SDS011;29544;52.018;5.810;2023-04-03T05:12:45;2.72;;;0.85;;
43883;SDS011;29544;52.018;5.810;2023-04-03T05:15:11;1.93;;;1.10;;
43883;SDS011;29544;52.018;5.810;2023-04-03T05:17:36;1.63;;;1.00;;
43883;SDS011;29544;52.018;5.810;2023-04-03T05:20:02;1.67;;;0.93;;
43883;SDS011;29544;52.018;5.810;2023-04-03T05:22:29;1.42;;;0.90;;
43883;SDS011;29544;52.018;5.810;2023-04-03T05:24:55;2.17;;;0.77;;
43883;SDS011;29544;52.018;5.810;2023-04-03T05:27:20;1.73;;;0.90;;
43883;SDS011;29544;52.018;5.810;2023-04-03T05:29:48;1.40;;;0.75;;
43883;SDS011;29544;52.018;5.810;2023-04-03T05:32:13;1.97;;;1.00;;
43883;SDS011;29544;52.018;5.810;2023-04-03T05:34:39;2.77;;;1.00;;
43883;SDS011;29544;52.018;5.810;2023-04-03T05:37:05;3.87;;;1.03;;
43883;SDS011;29544;52.018;5.810;2023-04-03T05:39:30;2.60;;;1.10;;
43883;SDS011;29544;52.018;5.810;2023-04-03T05:41:56;2.35;;;0.90;;
43883;SDS011;29544;52.018;5.810;2023-04-03T05:44:22;2.13;;;0.90;;
43883;SDS011;29544;52.018;5.810;2023-04-03T05:46:48;1.57;;;0.87;;
43883;SDS011;29544;52.018;5.810;2023-04-03T05:49:13;2.43;;;0.90;;
43883;SDS011;29544;52.018;5.810;2023-04-03T05:51:39;1.93;;;0.97;;
43883;SDS011;29544;52.018;5.810;2023-04-03T05:54:10;2.22;;;0.77;;
43883;SDS011;29544;52.018;5.810;2023-04-03T05:56:48;2.72;;;1.20;;
43883;SDS011;29544;52.018;5.810;2023-04-03T06:01:40;2.25;;;1.05;;
43883;SDS011;29544;52.018;5.810;2023-04-03T06:04:06;3.97;;;1.20;;
43883;SDS011;29544;52.018;5.810;2023-04-03T06:09:20;2.55;;;1.23;;
43883;SDS011;29544;52.018;5.810;2023-04-03T06:11:47;2.83;;;1.35;;
43883;SDS011;29544;52.018;5.810;2023-04-03T06:14:12;1.93;;;0.90;;
43883;SDS011;29544;52.018;5.810;2023-04-03T06:16:38;3.20;;;1.43;;
43883;SDS011;29544;52.018;5.810;2023-04-03T06:19:04;1.77;;;1.08;;
43883;SDS011;29544;52.018;5.810;2023-04-03T06:21:30;2.20;;;1.17;;
43883;SDS011;29544;52.018;5.810;2023-04-03T06:23:56;4.03;;;1.37;;
43883;SDS011;29544;52.018;5.810;2023-04-03T06:26:21;2.10;;;1.13;;
43883;SDS011;29544;52.018;5.810;2023-04-03T06:28:47;2.40;;;1.10;;
43883;SDS011;29544;52.018;5.810;2023-04-03T06:31:13;1.97;;;1.17;;
43883;SDS011;29544;52.018;5.810;2023-04-03T06:33:38;5.20;;;1.30;;
43883;SDS011;29544;52.018;5.810;2023-04-03T06:36:04;3.37;;;1.40;;
43883;SDS011;29544;52.018;5.810;2023-04-03T06:38:31;1.75;;;1.10;;
43883;SDS011;29544;52.018;5.810;2023-04-03T06:40:57;2.78;;;1.05;;
43883;SDS011;29544;52.018;5.810;2023-04-03T06:43:23;2.23;;;1.00;;
43883;SDS011;29544;52.018;5.810;2023-04-03T06:45:49;2.58;;;1.40;;
43883;SDS011;29544;52.018;5.810;2023-04-03T06:48:15;3.00;;;1.25;;
43883;SDS011;29544;52.018;5.810;2023-04-03T06:50:41;1.97;;;1.00;;
43883;SDS011;29544;52.018;5.810;2023-04-03T06:53:07;3.87;;;1.20;;
43883;SDS011;29544;52.018;5.810;2023-04-03T06:55:33;2.58;;;1.17;;
43883;SDS011;29544;52.018;5.810;2023-04-03T06:57:58;1.30;;;0.90;;
43883;SDS011;29544;52.018;5.810;2023-04-03T07:00:24;1.83;;;1.00;;
43883;SDS011;29544;52.018;5.810;2023-04-03T07:02:49;3.93;;;1.33;;
43883;SDS011;29544;52.018;5.810;2023-04-03T07:05:16;6.70;;;1.10;;
43883;SDS011;29544;52.018;5.810;2023-04-03T07:07:42;3.37;;;1.23;;
43883;SDS011;29544;52.018;5.810;2023-04-03T07:10:07;2.20;;;1.00;;
43883;SDS011;29544;52.018;5.810;2023-04-03T07:12:33;2.70;;;1.20;;
43883;SDS011;29544;52.018;5.810;2023-04-03T07:14:59;6.00;;;1.40;;
43883;SDS011;29544;52.018;5.810;2023-04-03T07:17:24;3.57;;;1.40;;
43883;SDS011;29544;52.018;5.810;2023-04-03T07:19:50;2.67;;;0.87;;
43883;SDS011;29544;52.018;5.810;2023-04-03T07:22:16;3.20;;;1.10;;
43883;SDS011;29544;52.018;5.810;2023-04-03T07:24:42;3.20;;;1.40;;
43883;SDS011;29544;52.018;5.810;2023-04-03T07:27:08;2.50;;;1.17;;
43883;SDS011;29544;52.018;5.810;2023-04-03T07:29:34;4.60;;;1.57;;
43883;SDS011;29544;52.018;5.810;2023-04-03T07:32:00;3.88;;;1.27;;
43883;SDS011;29544;52.018;5.810;2023-04-03T07:34:26;2.88;;;1.20;;
43883;SDS011;29544;52.018;5.810;2023-04-03T07:36:52;2.97;;;1.20;;
43883;SDS011;29544;52.018;5.810;2023-04-03T07:39:18;3.80;;;1.03;;
43883;SDS011;29544;52.018;5.810;2023-04-03T07:41:43;1.97;;;1.03;;
43883;SDS011;29544;52.018;5.810;2023-04-03T07:44:09;2.73;;;1.13;;
43883;SDS011;29544;52.018;5.810;2023-04-03T07:46:35;4.07;;;1.40;;
43883;SDS011;29544;52.018;5.810;2023-04-03T07:49:01;4.85;;;1.30;;
43883;SDS011;29544;52.018;5.810;2023-04-03T07:51:27;4.63;;;1.30;;
43883;SDS011;29544;52.018;5.810;2023-04-03T07:53:54;5.45;;;1.25;;
43883;SDS011;29544;52.018;5.810;2023-04-03T07:56:20;2.17;;;0.90;;
43883;SDS011;29544;52.018;5.810;2023-04-03T07:58:46;2.07;;;1.10;;
43883;SDS011;29544;52.018;5.810;2023-04-03T08:01:11;2.27;;;0.97;;
43883;SDS011;29544;52.018;5.810;2023-04-03T08:03:38;4.83;;;1.43;;
43883;SDS011;29544;52.018;5.810;2023-04-03T08:06:04;2.92;;;1.30;;
43883;SDS011;29544;52.018;5.810;2023-04-03T08:08:31;1.77;;;1.08;;
43883;SDS011;29544;52.018;5.810;2023-04-03T08:10:58;2.25;;;0.90;;
43883;SDS011;29544;52.018;5.810;2023-04-03T08:13:25;2.22;;;1.08;;
43883;SDS011;29544;52.018;5.810;2023-04-03T08:15:51;3.30;;;1.10;;
43883;SDS011;29544;52.018;5.810;2023-04-03T08:18:17;4.40;;;1.13;;
43883;SDS011;29544;52.018;5.810;2023-04-03T08:20:46;3.72;;;1.10;;
43883;SDS011;29544;52.018;5.810;2023-04-03T08:23:11;3.00;;;1.20;;
43883;SDS011;29544;52.018;5.810;2023-04-03T08:25:40;2.83;;;1.13;;
43883;SDS011;29544;52.018;5.810;2023-04-03T08:28:07;3.40;;;1.20;;
43883;SDS011;29544;52.018;5.810;2023-04-03T08:30:33;2.00;;;0.80;;
43883;SDS011;29544;52.018;5.810;2023-04-03T08:33:02;2.40;;;0.90;;
43883;SDS011;29544;52.018;5.810;2023-04-03T08:35:28;1.92;;;0.82;;
43883;SDS011;29544;52.018;5.810;2023-04-03T08:37:54;3.57;;;1.20;;
43883;SDS011;29544;52.018;5.810;2023-04-03T08:40:20;1.57;;;0.90;;
43883;SDS011;29544;52.018;5.810;2023-04-03T08:45:45;2.83;;;1.05;;
43883;SDS011;29544;52.018;5.810;2023-04-03T08:50:50;1.65;;;0.80;;
43883;SDS011;29544;52.018;5.810;2023-04-03T08:53:25;3.22;;;1.00;;
43883;SDS011;29544;52.018;5.810;2023-04-03T08:55:53;1.65;;;0.75;;
43883;SDS011;29544;52.018;5.810;2023-04-03T08:58:21;1.75;;;0.77;;
43883;SDS011;29544;52.018;5.810;2023-04-03T09:01:13;3.58;;;1.00;;
43883;SDS011;29544;52.018;5.810;2023-04-03T09:03:44;1.38;;;0.80;;
43883;SDS011;29544;52.018;5.810;2023-04-03T09:06:13;1.93;;;0.90;;
43883;SDS011;29544;52.018;5.810;2023-04-03T09:08:44;2.60;;;0.82;;
43883;SDS011;29544;52.018;5.810;2023-04-03T09:11:40;3.90;;;0.70;;
43883;SDS011;29544;52.018;5.810;2023-04-03T09:14:20;1.80;;;0.80;;
43883;SDS011;29544;52.018;5.810;2023-04-03T09:16:49;2.67;;;1.23;;
43883;SDS011;29544;52.018;5.810;2023-04-03T09:21:52;1.25;;;0.73;;
43883;SDS011;29544;52.018;5.810;2023-04-03T09:24:18;1.60;;;0.77;;
43883;SDS011;29544;52.018;5.810;2023-04-03T09:26:59;2.53;;;0.80;;
43883;SDS011;29544;52.018;5.810;2023-04-03T09:29:29;1.65;;;0.90;;
43883;SDS011;29544;52.018;5.810;2023-04-03T09:32:01;1.00;;;0.50;;
43883;SDS011;29544;52.018;5.810;2023-04-03T09:34:37;2.97;;;0.85;;
43883;SDS011;29544;52.018;5.810;2023-04-03T09:37:06;1.65;;;0.60;;
43883;SDS011;29544;52.018;5.810;2023-04-03T09:39:48;2.55;;;0.77;;
43883;SDS011;29544;52.018;5.810;2023-04-03T09:42:21;2.25;;;0.38;;
43883;SDS011;29544;52.018;5.810;2023-04-03T09:44:59;2.33;;;0.68;;
43883;SDS011;29544;52.018;5.810;2023-04-03T09:47:27;1.00;;;0.60;;
43883;SDS011;29544;52.018;5.810;2023-04-03T09:50:17;1.83;;;0.70;;
43883;SDS011;29544;52.018;5.810;2023-04-03T09:52:47;1.00;;;0.57;;
43883;SDS011;29544;52.018;5.810;2023-04-03T09:55:17;0.98;;;0.60;;
43883;SDS011;29544;52.018;5.810;2023-04-03T09:57:58;2.10;;;1.02;;
43883;SDS011;29544;52.018;5.810;2023-04-03T10:00:35;0.80;;;0.47;;
43883;SDS011;29544;52.018;5.810;2023-04-03T10:03:02;1.08;;;0.55;;
43883;SDS011;29544;52.018;5.810;2023-04-03T10:08:19;2.03;;;0.70;;
43883;SDS011;29544;52.018;5.810;2023-04-03T10:11:05;1.85;;;0.50;;
43883;SDS011;29544;52.018;5.810;2023-04-03T10:13:31;0.60;;;0.40;;
43883;SDS011;29544;52.018;5.810;2023-04-03T10:16:01;1.07;;;0.40;;
43883;SDS011;29544;52.018;5.810;2023-04-03T10:21:40;2.33;;;0.40;;
43883;SDS011;29544;52.018;5.810;2023-04-03T10:24:10;1.25;;;0.32;;
43883;SDS011;29544;52.018;5.810;2023-04-03T10:26:51;1.15;;;0.80;;
43883;SDS011;29544;52.018;5.810;2023-04-03T10:29:40;1.40;;;0.50;;
43883;SDS011;29544;52.018;5.810;2023-04-03T10:38:15;1.38;;;0.75;;
43883;SDS011;29544;52.018;5.810;2023-04-03T10:40:58;2.63;;;0.63;;
43883;SDS011;29544;52.018;5.810;2023-04-03T10:49:33;1.83;;;0.40;;
43883;SDS011;29544;52.018;5.810;2023-04-03T10:52:25;3.80;;;0.90;;
43883;SDS011;29544;52.018;5.810;2023-04-03T10:57:38;3.30;;;0.57;;
43883;SDS011;29544;52.018;5.810;2023-04-03T11:00:16;1.55;;;0.43;;
43883;SDS011;29544;52.018;5.810;2023-04-03T11:03:22;1.15;;;0.60;;
43883;SDS011;29544;52.018;5.810;2023-04-03T11:05:43;1.17;;;0.60;;
43883;SDS011;29544;52.018;5.810;2023-04-03T11:08:16;1.00;;;0.50;;
43883;SDS011;29544;52.018;5.810;2023-04-03T11:10:45;0.75;;;0.50;;
43883;SDS011;29544;52.018;5.810;2023-04-03T11:13:17;1.27;;;0.45;;
43883;SDS011;29544;52.018;5.810;2023-04-03T11:15:51;1.33;;;0.50;;
43883;SDS011;29544;52.018;5.810;2023-04-03T11:18:21;0.85;;;0.32;;
43883;SDS011;29544;52.018;5.810;2023-04-03T11:21:03;3.15;;;0.65;;
43883;SDS011;29544;52.018;5.810;2023-04-03T11:23:34;2.15;;;0.80;;
43883;SDS011;29544;52.018;5.810;2023-04-03T11:26:06;1.77;;;0.65;;
43883;SDS011;29544;52.018;5.810;2023-04-03T11:28:35;3.83;;;0.52;;
43883;SDS011;29544;52.018;5.810;2023-04-03T11:31:06;0.70;;;0.35;;
43883;SDS011;29544;52.018;5.810;2023-04-03T11:33:51;2.08;;;0.55;;
43883;SDS011;29544;52.018;5.810;2023-04-03T11:36:32;1.52;;;0.47;;
43883;SDS011;29544;52.018;5.810;2023-04-03T11:39:16;1.83;;;0.52;;
43883;SDS011;29544;52.018;5.810;2023-04-03T11:41:50;1.40;;;0.50;;
43883;SDS011;29544;52.018;5.810;2023-04-03T11:44:36;1.90;;;0.73;;
43883;SDS011;29544;52.018;5.810;2023-04-03T11:47:03;1.00;;;0.50;;
43883;SDS011;29544;52.018;5.810;2023-04-03T12:05:54;1.13;;;0.60;;
43883;SDS011;29544;52.018;5.810;2023-04-03T12:19:03;1.70;;;0.70;;
43883;SDS011;29544;52.018;5.810;2023-04-03T12:22:11;2.75;;;0.77;;
43883;SDS011;29544;52.018;5.810;2023-04-03T12:30:45;1.70;;;0.75;;
43883;SDS011;29544;52.018;5.810;2023-04-03T12:38:38;1.65;;;0.60;;
43883;SDS011;29544;52.018;5.810;2023-04-03T12:46:58;0.80;;;0.50;;
43883;SDS011;29544;52.018;5.810;2023-04-03T12:51:54;1.67;;;0.70;;
43883;SDS011;29544;52.018;5.810;2023-04-03T12:54:27;3.28;;;0.70;;
43883;SDS011;29544;52.018;5.810;2023-04-03T12:57:11;2.15;;;0.80;;
43883;SDS011;29544;52.018;5.810;2023-04-03T12:59:40;2.25;;;0.80;;
43883;SDS011;29544;52.018;5.810;2023-04-03T13:04:46;2.72;;;0.40;;
43883;SDS011;29544;52.018;5.810;2023-04-03T13:09:54;5.03;;;0.65;;
43883;SDS011;29544;52.018;5.810;2023-04-03T13:12:21;1.67;;;0.70;;
43883;SDS011;29544;52.018;5.810;2023-04-03T13:14:57;2.23;;;0.60;;
43883;SDS011;29544;52.018;5.810;2023-04-03T13:17:25;3.05;;;0.80;;
43883;SDS011;29544;52.018;5.810;2023-04-03T13:19:52;2.50;;;0.73;;
43883;SDS011;29544;52.018;5.810;2023-04-03T13:24:54;4.10;;;0.60;;
43883;SDS011;29544;52.018;5.810;2023-04-03T13:27:21;8.30;;;1.10;;
43883;SDS011;29544;52.018;5.810;2023-04-03T13:29:51;1.33;;;0.60;;
43883;SDS011;29544;52.018;5.810;2023-04-03T13:32:22;2.60;;;0.90;;
43883;SDS011;29544;52.018;5.810;2023-04-03T13:34:50;1.08;;;0.60;;
43883;SDS011;29544;52.018;5.810;2023-04-03T13:37:23;1.50;;;0.57;;
43883;SDS011;29544;52.018;5.810;2023-04-03T13:39:58;1.45;;;0.70;;
43883;SDS011;29544;52.018;5.810;2023-04-03T13:42:33;3.80;;;0.98;;
43883;SDS011;29544;52.018;5.810;2023-04-03T13:45:19;1.40;;;0.50;;
43883;SDS011;29544;52.018;5.810;2023-04-03T13:47:51;1.75;;;0.60;;
43883;SDS011;29544;52.018;5.810;2023-04-03T13:50:21;2.05;;;0.82;;
43883;SDS011;29544;52.018;5.810;2023-04-03T13:52:53;2.55;;;0.80;;
43883;SDS011;29544;52.018;5.810;2023-04-03T13:55:26;1.48;;;0.60;;
43883;SDS011;29544;52.018;5.810;2023-04-03T13:58:21;1.42;;;0.60;;
43883;SDS011;29544;52.018;5.810;2023-04-03T14:00:52;1.35;;;0.60;;
43883;SDS011;29544;52.018;5.810;2023-04-03T14:03:25;0.95;;;0.52;;
43883;SDS011;29544;52.018;5.810;2023-04-03T14:05:55;1.17;;;0.50;;
43883;SDS011;29544;52.018;5.810;2023-04-03T14:08:21;1.85;;;0.70;;
43883;SDS011;29544;52.018;5.810;2023-04-03T14:10:46;1.97;;;0.50;;
43883;SDS011;29544;52.018;5.810;2023-04-03T14:13:15;2.85;;;0.77;;
43883;SDS011;29544;52.018;5.810;2023-04-03T14:15:43;1.17;;;0.47;;
43883;SDS011;29544;52.018;5.810;2023-04-03T14:18:13;3.50;;;0.70;;
43883;SDS011;29544;52.018;5.810;2023-04-03T14:20:40;2.75;;;0.73;;
43883;SDS011;29544;52.018;5.810;2023-04-03T14:23:06;1.60;;;0.37;;
43883;SDS011;29544;52.018;5.810;2023-04-03T14:25:32;1.52;;;0.55;;
43883;SDS011;29544;52.018;5.810;2023-04-03T14:27:57;4.82;;;0.98;;
43883;SDS011;29544;52.018;5.810;2023-04-03T14:30:26;1.55;;;0.50;;
43883;SDS011;29544;52.018;5.810;2023-04-03T14:32:54;2.67;;;0.73;;
43883;SDS011;29544;52.018;5.810;2023-04-03T14:35:20;2.17;;;0.80;;
43883;SDS011;29544;52.018;5.810;2023-04-03T14:37:47;1.33;;;0.63;;
43883;SDS011;29544;52.018;5.810;2023-04-03T14:40:14;1.77;;;0.75;;
43883;SDS011;29544;52.018;5.810;2023-04-03T14:42:42;1.95;;;0.60;;
43883;SDS011;29544;52.018;5.810;2023-04-03T14:45:09;4.18;;;0.77;;
43883;SDS011;29544;52.018;5.810;2023-04-03T14:47:39;3.38;;;0.80;;
43883;SDS011;29544;52.018;5.810;2023-04-03T14:50:12;2.30;;;0.60;;
43883;SDS011;29544;52.018;5.810;2023-04-03T14:52:40;1.70;;;0.75;;
43883;SDS011;29544;52.018;5.810;2023-04-03T14:55:06;1.37;;;0.60;;
43883;SDS011;29544;52.018;5.810;2023-04-03T14:57:32;1.15;;;0.60;;
43883;SDS011;29544;52.018;5.810;2023-04-03T14:59:58;1.05;;;0.68;;
43883;SDS011;29544;52.018;5.810;2023-04-03T15:02:27;3.35;;;1.00;;
43883;SDS011;29544;52.018;5.810;2023-04-03T15:04:54;2.03;;;0.90;;
43883;SDS011;29544;52.018;5.810;2023-04-03T15:07:20;1.83;;;1.00;;
43883;SDS011;29544;52.018;5.810;2023-04-03T15:09:47;3.05;;;0.75;;
43883;SDS011;29544;52.018;5.810;2023-04-03T15:12:13;1.63;;;0.80;;
43883;SDS011;29544;52.018;5.810;2023-04-03T15:14:38;1.40;;;0.57;;
43883;SDS011;29544;52.018;5.810;2023-04-03T15:17:05;1.53;;;0.90;;
43883;SDS011;29544;52.018;5.810;2023-04-03T15:19:35;2.03;;;0.85;;
43883;SDS011;29544;52.018;5.810;2023-04-03T15:22:02;2.50;;;0.73;;
43883;SDS011;29544;52.018;5.810;2023-04-03T15:24:28;5.00;;;1.00;;
43883;SDS011;29544;52.018;5.810;2023-04-03T15:26:53;1.83;;;0.77;;
43883;SDS011;29544;52.018;5.810;2023-04-03T15:29:19;1.43;;;0.70;;
43883;SDS011;29544;52.018;5.810;2023-04-03T15:31:45;1.67;;;0.60;;
43883;SDS011;29544;52.018;5.810;2023-04-03T15:34:10;1.33;;;0.60;;
43883;SDS011;29544;52.018;5.810;2023-04-03T15:36:36;0.83;;;0.50;;
43883;SDS011;29544;52.018;5.810;2023-04-03T15:39:01;0.80;;;0.70;;
43883;SDS011;29544;52.018;5.810;2023-04-03T15:41:27;1.83;;;0.57;;
43883;SDS011;29544;52.018;5.810;2023-04-03T15:43:52;1.40;;;0.70;;
43883;SDS011;29544;52.018;5.810;2023-04-03T15:46:18;2.20;;;0.80;;
43883;SDS011;29544;52.018;5.810;2023-04-03T15:48:43;1.80;;;0.70;;
43883;SDS011;29544;52.018;5.810;2023-04-03T15:51:09;1.67;;;0.80;;
43883;SDS011;29544;52.018;5.810;2023-04-03T15:53:35;2.03;;;0.90;;
43883;SDS011;29544;52.018;5.810;2023-04-03T15:56:01;2.47;;;0.80;;
43883;SDS011;29544;52.018;5.810;2023-04-03T15:58:26;1.53;;;0.70;;
43883;SDS011;29544;52.018;5.810;2023-04-03T16:00:52;3.37;;;1.00;;
43883;SDS011;29544;52.018;5.810;2023-04-03T16:03:18;1.77;;;0.77;;
43883;SDS011;29544;52.018;5.810;2023-04-03T16:05:45;1.40;;;0.65;;
43883;SDS011;29544;52.018;5.810;2023-04-03T16:08:11;1.97;;;0.93;;
43883;SDS011;29544;52.018;5.810;2023-04-03T16:10:37;1.97;;;0.90;;
43883;SDS011;29544;52.018;5.810;2023-04-03T16:13:04;1.60;;;0.75;;
43883;SDS011;29544;52.018;5.810;2023-04-03T16:15:29;2.23;;;0.70;;
43883;SDS011;29544;52.018;5.810;2023-04-03T16:17:57;1.67;;;0.80;;
43883;SDS011;29544;52.018;5.810;2023-04-03T16:20:23;1.83;;;0.85;;
43883;SDS011;29544;52.018;5.810;2023-04-03T16:22:50;1.95;;;0.80;;
43883;SDS011;29544;52.018;5.810;2023-04-03T16:25:15;0.73;;;0.50;;
43883;SDS011;29544;52.018;5.810;2023-04-03T16:27:42;1.27;;;0.60;;
43883;SDS011;29544;52.018;5.810;2023-04-03T16:30:08;1.03;;;0.67;;
43883;SDS011;29544;52.018;5.810;2023-04-03T16:32:35;1.45;;;0.68;;
43883;SDS011;29544;52.018;5.810;2023-04-03T16:35:01;1.67;;;0.88;;